N.dadayli — TCCW7 — position and weather

sailwx.info

Track history (hours):
 
Tides and Currents Weather Stations Pressure Air Temp Water Temp Dewpoint Dewpoint Depression Visibility Wind Speed Wind Dir Waves Ship Positions

N.dadayli

Last reported at 2014-Oct-20 19:21 UTC. Time now 2014-Oct-22 06:29 UTC.
Position N 46°29' E 030°45'.

Length 101 m; draft 4.8 m.

Type: Ship. MMSI: 271000768.

Date/timePositionNaut miles runAvg speedWind from/ knotsBaromVisibWave heightAir tempDewpointWater temp
2014-Oct-20 19:21N 46°29' E 030°45'340 8.1
2014-Oct-19 01:33N 40°58' E 028°60'9 9.4
2014-Oct-19 00:33N 40°50' E 029°06'4 3.9
2014-Oct-18 23:32N 40°52' E 029°11'0 0.1
2014-Oct-18 22:26N 40°52' E 029°11'0 0.1
2014-Oct-18 21:26N 40°52' E 029°11'0 0.0
2014-Oct-18 20:32N 40°52' E 029°11'0 0.0
2014-Oct-18 19:26N 40°52' E 029°11'0 0.0
2014-Oct-18 18:26N 40°52' E 029°11'0 0.0
2014-Oct-18 17:32N 40°52' E 029°11'0 0.0
2014-Oct-18 16:26N 40°52' E 029°11'0 0.0
2014-Oct-18 15:26N 40°52' E 029°11'0 0.0
2014-Oct-18 14:32N 40°52' E 029°11'0 0.0
2014-Oct-18 13:32N 40°52' E 029°11'0 0.1
2014-Oct-18 12:32N 40°52' E 029°11'6 6.2
2014-Oct-18 11:33N 40°48' E 029°04'5 5.3
2014-Oct-18 10:33N 40°50' E 028°57'4 4.4
2014-Oct-18 09:32N 40°46' E 029°01'1 1.3
2014-Oct-18 08:33N 40°47' E 029°00'1 1.4
2014-Oct-18 07:33N 40°48' E 028°59'1 0.9
2014-Oct-18 06:31N 40°48' E 028°57'9610.7
2014-Oct-17 21:30N 40°28' E 026°53'1612.6
2014-Oct-17 20:14N 40°19' E 026°37'4111.1
2014-Oct-17 16:32N 39°59' E 025°49'1312.6
2014-Oct-17 15:31N 40°07' E 025°36'1212.4
2014-Oct-17 14:33N 40°17' E 025°29'1313.0
2014-Oct-17 13:33N 40°29' E 025°21'1212.5
2014-Oct-17 12:33N 40°40' E 025°14'1313.1
2014-Oct-17 11:33N 40°52' E 025°07'8 6.4
2014-Oct-17 10:18N 41°00' E 025°07'0 0.0
2014-Oct-17 08:30N 41°00' E 025°07'0 0.0
2014-Oct-17 07:18N 41°00' E 025°07'0 0.0
2014-Oct-17 05:33N 41°00' E 025°07'0 0.0
2014-Oct-17 04:12N 41°00' E 025°07'0 0.0
2014-Oct-17 03:18N 41°00' E 025°07'0 0.0
2014-Oct-17 02:18N 41°00' E 025°07'0 0.0
2014-Oct-17 00:30N 41°00' E 025°07'0 0.0
2014-Oct-16 23:06N 41°00' E 025°07'0 0.0
2014-Oct-16 21:24N 41°00' E 025°07'0 0.0
2014-Oct-16 18:30N 41°00' E 025°07'0 0.0
2014-Oct-16 14:24N 41°00' E 025°07'0 0.0
2014-Oct-16 13:30N 41°00' E 025°07'0 0.0
2014-Oct-16 03:24N 41°00' E 025°07'0 0.0
2014-Oct-14 15:30N 41°00' E 025°07'0 0.0
2014-Oct-14 01:27N 41°00' E 025°07'0 0.0
2014-Oct-13 22:18N 41°00' E 025°07'0 0.0
2014-Oct-13 21:30N 41°00' E 025°07'0 0.0
2014-Oct-13 20:21N 41°00' E 025°07'0 0.0
2014-Oct-13 18:24N 41°00' E 025°07'0 0.0
2014-Oct-13 13:12N 41°00' E 025°07'0 0.0
2014-Oct-13 07:30N 41°00' E 025°07'0 0.0
2014-Oct-13 06:06N 41°00' E 025°07'0 0.0
2014-Oct-13 05:12N 41°00' E 025°07'0 0.0
2014-Oct-13 04:24N 41°00' E 025°07'0 0.0
2014-Oct-13 03:30N 41°00' E 025°07'0 0.0
2014-Oct-13 02:30N 41°00' E 025°07'0 0.0
2014-Oct-13 01:12N 41°00' E 025°07'0 0.0
2014-Oct-13 00:18N 41°00' E 025°07'0 0.0
2014-Oct-12 23:30N 41°00' E 025°07'0 0.0
2014-Oct-12 18:33N 41°00' E 025°07'0 0.0
2014-Oct-12 00:12N 41°00' E 025°07'0 0.0
2014-Oct-11 23:30N 41°00' E 025°07'0 0.0
2014-Oct-11 22:18N 41°00' E 025°07'0 0.0
2014-Oct-11 21:27N 41°00' E 025°07'0 0.0
2014-Oct-11 20:30N 41°00' E 025°07'0 0.0
2014-Oct-11 17:30N 41°00' E 025°07'0 0.0
2014-Oct-11 16:18N 41°00' E 025°07'0 0.0
2014-Oct-11 05:12N 41°00' E 025°07'0 0.0
2014-Oct-11 03:06N 41°00' E 025°07'0 0.0
2014-Oct-11 01:30N 41°00' E 025°07'0 0.0
2014-Oct-10 23:30N 41°00' E 025°07'0 0.0
2014-Oct-10 22:30N 41°00' E 025°07'0 0.0
2014-Oct-10 20:06N 41°00' E 025°07'0 0.0
2014-Oct-10 19:24N 41°00' E 025°07'  
Track history (hours):
 
Tides and Currents Weather Stations Pressure Air Temp Water Temp Dewpoint Dewpoint Depression Visibility Wind Speed Wind Dir Waves Ship Positions

N.dadayli

Last reported at 2014-Oct-20 19:21 UTC. Time now 2014-Oct-22 06:29 UTC.
Position N 46°29' E 030°45'.

Length 101 m; draft 4.8 m.

Type: Ship. MMSI: 271000768.

Date/timePositionNaut miles runAvg speedWind from/ knotsBaromVisibWave heightAir tempDewpointWater temp
2014-Oct-20 19:21N 46°29' E 030°45'340 8.1
2014-Oct-19 01:33N 40°58' E 028°60'9 9.4
2014-Oct-19 00:33N 40°50' E 029°06'4 3.9
2014-Oct-18 23:32N 40°52' E 029°11'0 0.1
2014-Oct-18 22:26N 40°52' E 029°11'0 0.1
2014-Oct-18 21:26N 40°52' E 029°11'0 0.0
2014-Oct-18 20:32N 40°52' E 029°11'0 0.0
2014-Oct-18 19:26N 40°52' E 029°11'0 0.0
2014-Oct-18 18:26N 40°52' E 029°11'0 0.0
2014-Oct-18 17:32N 40°52' E 029°11'0 0.0
2014-Oct-18 16:26N 40°52' E 029°11'0 0.0
2014-Oct-18 15:26N 40°52' E 029°11'0 0.0
2014-Oct-18 14:32N 40°52' E 029°11'0 0.0
2014-Oct-18 13:32N 40°52' E 029°11'0 0.1
2014-Oct-18 12:32N 40°52' E 029°11'6 6.2
2014-Oct-18 11:33N 40°48' E 029°04'5 5.3
2014-Oct-18 10:33N 40°50' E 028°57'4 4.4
2014-Oct-18 09:32N 40°46' E 029°01'1 1.3
2014-Oct-18 08:33N 40°47' E 029°00'1 1.4
2014-Oct-18 07:33N 40°48' E 028°59'1 0.9
2014-Oct-18 06:31N 40°48' E 028°57'9610.7
2014-Oct-17 21:30N 40°28' E 026°53'1612.6
2014-Oct-17 20:14N 40°19' E 026°37'4111.1
2014-Oct-17 16:32N 39°59' E 025°49'1312.6
2014-Oct-17 15:31N 40°07' E 025°36'1212.4
2014-Oct-17 14:33N 40°17' E 025°29'1313.0
2014-Oct-17 13:33N 40°29' E 025°21'1212.5
2014-Oct-17 12:33N 40°40' E 025°14'1313.1
2014-Oct-17 11:33N 40°52' E 025°07'8 6.4
2014-Oct-17 10:18N 41°00' E 025°07'0 0.0
2014-Oct-17 08:30N 41°00' E 025°07'0 0.0
2014-Oct-17 07:18N 41°00' E 025°07'0 0.0
2014-Oct-17 05:33N 41°00' E 025°07'0 0.0
2014-Oct-17 04:12N 41°00' E 025°07'0 0.0
2014-Oct-17 03:18N 41°00' E 025°07'0 0.0
2014-Oct-17 02:18N 41°00' E 025°07'0 0.0
2014-Oct-17 00:30N 41°00' E 025°07'0 0.0
2014-Oct-16 23:06N 41°00' E 025°07'0 0.0
2014-Oct-16 21:24N 41°00' E 025°07'0 0.0
2014-Oct-16 18:30N 41°00' E 025°07'0 0.0
2014-Oct-16 14:24N 41°00' E 025°07'0 0.0
2014-Oct-16 13:30N 41°00' E 025°07'0 0.0
2014-Oct-16 03:24N 41°00' E 025°07'0 0.0
2014-Oct-14 15:30N 41°00' E 025°07'0 0.0
2014-Oct-14 01:27N 41°00' E 025°07'0 0.0
2014-Oct-13 22:18N 41°00' E 025°07'0 0.0
2014-Oct-13 21:30N 41°00' E 025°07'0 0.0
2014-Oct-13 20:21N 41°00' E 025°07'0 0.0
2014-Oct-13 18:24N 41°00' E 025°07'0 0.0
2014-Oct-13 13:12N 41°00' E 025°07'0 0.0
2014-Oct-13 07:30N 41°00' E 025°07'0 0.0
2014-Oct-13 06:06N 41°00' E 025°07'0 0.0
2014-Oct-13 05:12N 41°00' E 025°07'0 0.0
2014-Oct-13 04:24N 41°00' E 025°07'0 0.0
2014-Oct-13 03:30N 41°00' E 025°07'0 0.0
2014-Oct-13 02:30N 41°00' E 025°07'0 0.0
2014-Oct-13 01:12N 41°00' E 025°07'0 0.0
2014-Oct-13 00:18N 41°00' E 025°07'0 0.0
2014-Oct-12 23:30N 41°00' E 025°07'0 0.0
2014-Oct-12 18:33N 41°00' E 025°07'0 0.0
2014-Oct-12 00:12N 41°00' E 025°07'0 0.0
2014-Oct-11 23:30N 41°00' E 025°07'0 0.0
2014-Oct-11 22:18N 41°00' E 025°07'0 0.0
2014-Oct-11 21:27N 41°00' E 025°07'0 0.0
2014-Oct-11 20:30N 41°00' E 025°07'0 0.0
2014-Oct-11 17:30N 41°00' E 025°07'0 0.0
2014-Oct-11 16:18N 41°00' E 025°07'0 0.0
2014-Oct-11 05:12N 41°00' E 025°07'0 0.0
2014-Oct-11 03:06N 41°00' E 025°07'0 0.0
2014-Oct-11 01:30N 41°00' E 025°07'0 0.0
2014-Oct-10 23:30N 41°00' E 025°07'0 0.0
2014-Oct-10 22:30N 41°00' E 025°07'0 0.0
2014-Oct-10 20:06N 41°00' E 025°07'0 0.0
2014-Oct-10 19:24N 41°00' E 025°07'  

Dump ship's entire track history